Time;durP1;ratioP1;P1;durP2;ratioP2;P2;SDS_P1;SDS_P2;PMS_P1;PMS_P2;Temp;Humidity;BMP_temperature;BMP_pressure;BME280_temperature;BME280_humidity;BME280_pressure;Samples;Min_cycle;Max_cycle;Signal;HPM_P1;HPM_P2
2021/05/28 00:01:33;;;;;;;11.45;2.80;;;;;;;;;;5026369;28;21894;-78
2021/05/28 00:04:05;;;;;;;9.40;2.40;;;;;;;;;;5031538;28;20067;-81
2021/05/28 00:06:33;;;;;;;8.70;2.65;;;;;;;;;;5028859;28;20114;-80
2021/05/28 00:09:00;;;;;;;10.35;2.83;;;;;;;;;;5032720;28;20053;-79
2021/05/28 00:11:28;;;;;;;11.48;3.47;;;;;;;;;;5023499;28;20036;-80
2021/05/28 00:13:54;;;;;;;12.85;2.92;;;;;;;;;;5027662;28;20071;-79
2021/05/28 00:16:21;;;;;;;9.05;3.10;;;;;;;;;;5030573;28;20296;-80
2021/05/28 00:18:48;;;;;;;9.18;2.88;;;;;;;;;;5011997;28;20028;-80
2021/05/28 00:21:15;;;;;;;10.93;3.20;;;;;;;;;;5018822;28;20048;-80
2021/05/28 00:23:44;;;;;;;10.20;2.92;;;;;;;;;;5029156;28;20037;-80
2021/05/28 00:26:35;;;;;;;8.68;2.75;;;;;;;;;;5007335;28;20044;-79
2021/05/28 00:29:03;;;;;;;9.48;2.55;;;;;;;;;;5012771;28;20060;-80
2021/05/28 00:31:30;;;;;;;10.30;2.60;;;;;;;;;;5012764;28;20044;-81
2021/05/28 00:33:56;;;;;;;11.75;2.90;;;;;;;;;;5009425;28;20409;-81
2021/05/28 00:36:22;;;;;;;9.32;2.75;;;;;;;;;;5009618;28;20112;-81
2021/05/28 00:38:49;;;;;;;8.32;2.75;;;;;;;;;;5005060;28;20034;-81
2021/05/28 00:41:16;;;;;;;11.07;2.92;;;;;;;;;;5022473;28;20493;-81
2021/05/28 00:43:45;;;;;;;9.50;2.78;;;;;;;;;;5009850;28;20557;-80
2021/05/28 00:46:13;;;;;;;10.52;2.78;;;;;;;;;;5022390;28;20026;-81
2021/05/28 00:48:42;;;;;;;9.45;2.53;;;;;;;;;;5025965;28;20122;-81
2021/05/28 00:51:10;;;;;;;8.98;2.42;;;;;;;;;;5022818;28;20030;-80
2021/05/28 00:53:36;;;;;;;11.10;3.00;;;;;;;;;;5026464;28;20102;-80
2021/05/28 00:56:03;;;;;;;11.38;2.60;;;;;;;;;;5024157;28;20477;-80
2021/05/28 00:58:30;;;;;;;10.80;2.80;;;;;;;;;;5010878;28;20087;-79
2021/05/28 01:00:58;;;;;;;9.57;2.70;;;;;;;;;;5009317;28;20068;-80
2021/05/28 01:03:25;;;;;;;9.48;2.70;;;;;;;;;;5006696;28;20038;-80
2021/05/28 01:05:52;;;;;;;11.13;2.70;;;;;;;;;;5024508;28;20026;-81
2021/05/28 01:08:19;;;;;;;10.23;2.83;;;;;;;;;;5006625;28;20072;-80
2021/05/28 01:10:47;;;;;;;12.43;3.22;;;;;;;;;;5012111;28;20103;-81
2021/05/28 01:13:14;;;;;;;8.88;2.90;;;;;;;;;;5006528;28;20599;-81
2021/05/28 01:15:42;;;;;;;8.73;2.47;;;;;;;;;;5012195;28;20097;-80
2021/05/28 01:18:11;;;;;;;10.00;2.70;;;;;;;;;;5020749;28;20083;-79
2021/05/28 01:20:37;;;;;;;10.07;2.85;;;;;;;;;;5012357;28;20064;-81
2021/05/28 01:23:04;;;;;;;9.70;2.50;;;;;;;;;;5024463;28;20036;-79
2021/05/28 01:25:33;;;;;;;9.63;2.53;;;;;;;;;;5004058;28;20046;-79
2021/05/28 01:28:01;;;;;;;9.70;2.70;;;;;;;;;;5014133;28;20094;-80
2021/05/28 01:30:29;;;;;;;8.93;2.60;;;;;;;;;;5025320;28;20037;-80
2021/05/28 01:32:57;;;;;;;8.05;2.53;;;;;;;;;;5025290;28;20049;-80
2021/05/28 01:35:24;;;;;;;10.13;2.70;;;;;;;;;;5023195;28;20026;-80
2021/05/28 01:37:50;;;;;;;8.02;2.45;;;;;;;;;;5033866;28;20162;-79
2021/05/28 01:40:19;;;;;;;8.98;2.65;;;;;;;;;;5021712;28;20041;-79
2021/05/28 01:42:46;;;;;;;8.98;2.58;;;;;;;;;;5014384;28;20032;-79
2021/05/28 01:45:14;;;;;;;10.57;2.60;;;;;;;;;;5025463;28;20021;-79
2021/05/28 01:47:41;;;;;;;10.48;2.47;;;;;;;;;;5026088;28;20044;-80
2021/05/28 01:50:10;;;;;;;10.30;2.35;;;;;;;;;;5033898;28;20089;-79
2021/05/28 01:52:36;;;;;;;9.27;2.53;;;;;;;;;;5027207;28;20059;-82
2021/05/28 01:55:04;;;;;;;10.13;2.70;;;;;;;;;;5019195;28;20052;-79
2021/05/28 01:57:31;;;;;;;9.02;2.75;;;;;;;;;;5025966;28;20029;-82
2021/05/28 01:59:58;;;;;;;8.75;2.63;;;;;;;;;;5015503;28;20505;-79
2021/05/28 02:02:25;;;;;;;9.95;3.03;;;;;;;;;;5025877;28;20068;-80
2021/05/28 02:04:51;;;;;;;10.75;2.60;;;;;;;;;;5029437;28;20478;-81
2021/05/28 02:07:20;;;;;;;7.60;2.30;;;;;;;;;;5012436;28;20048;-79
2021/05/28 02:09:46;;;;;;;8.57;2.28;;;;;;;;;;5007348;28;20481;-79
2021/05/28 02:12:13;;;;;;;9.68;2.47;;;;;;;;;;5021737;28;20028;-80
2021/05/28 02:14:41;;;;;;;10.35;2.78;;;;;;;;;;5023799;28;20584;-80
2021/05/28 02:17:09;;;;;;;9.52;2.60;;;;;;;;;;5034461;28;20075;-80
2021/05/28 02:19:37;;;;;;;9.10;2.60;;;;;;;;;;5027662;28;20086;-79
2021/05/28 02:22:11;;;;;;;9.05;2.88;;;;;;;;;;5023187;28;20052;-79
2021/05/28 02:24:38;;;;;;;8.18;2.80;;;;;;;;;;5012373;28;20041;-79
2021/05/28 02:27:05;;;;;;;9.02;2.55;;;;;;;;;;5027046;28;20029;-82
2021/05/28 02:29:32;;;;;;;10.02;2.75;;;;;;;;;;5030507;28;20587;-80
2021/05/28 02:32:01;;;;;;;9.43;2.25;;;;;;;;;;5024770;28;20764;-81
2021/05/28 02:34:29;;;;;;;8.80;2.60;;;;;;;;;;5023771;28;20037;-80
2021/05/28 02:36:57;;;;;;;7.57;2.45;;;;;;;;;;5026786;28;20039;-80
2021/05/28 02:39:25;;;;;;;8.80;2.45;;;;;;;;;;5028314;28;20025;-80
2021/05/28 02:41:53;;;;;;;9.32;2.58;;;;;;;;;;5029377;28;20047;-82
2021/05/28 02:44:20;;;;;;;7.43;2.40;;;;;;;;;;5028839;28;20159;-80
2021/05/28 02:46:49;;;;;;;11.23;2.38;;;;;;;;;;5017252;28;20021;-82
2021/05/28 02:49:15;;;;;;;9.00;2.35;;;;;;;;;;5026798;28;20206;-83
2021/05/28 02:51:41;;;;;;;10.45;2.72;;;;;;;;;;5013980;28;20017;-80
2021/05/28 02:54:07;;;;;;;6.50;2.17;;;;;;;;;;5031024;28;20043;-81
2021/05/28 02:56:36;;;;;;;11.23;2.85;;;;;;;;;;5024768;28;20112;-82
2021/05/28 02:59:04;;;;;;;9.27;2.20;;;;;;;;;;5028179;28;20029;-81
2021/05/28 03:01:31;;;;;;;10.75;2.20;;;;;;;;;;5023861;28;20039;-78
2021/05/28 03:03:58;;;;;;;10.95;3.05;;;;;;;;;;5033064;28;20024;-80
2021/05/28 03:06:26;;;;;;;8.65;2.30;;;;;;;;;;5027241;28;20044;-81
2021/05/28 03:08:59;;;;;;;12.45;2.38;;;;;;;;;;5029913;28;20029;-81
2021/05/28 03:11:25;;;;;;;11.23;2.78;;;;;;;;;;5026207;28;20025;-81
2021/05/28 03:13:53;;;;;;;9.32;2.65;;;;;;;;;;5025224;28;20048;-82
2021/05/28 03:16:20;;;;;;;10.07;2.63;;;;;;;;;;5008379;28;20045;-82
2021/05/28 03:21:26;;;;;;;8.48;2.50;;;;;;;;;;5025659;28;20045;-82
2021/05/28 03:23:55;;;;;;;9.30;2.40;;;;;;;;;;5010538;28;20037;-81
2021/05/28 03:26:23;;;;;;;7.65;2.35;;;;;;;;;;5027474;28;20119;-80
2021/05/28 03:28:50;;;;;;;10.52;2.80;;;;;;;;;;5034383;28;20032;-81
2021/05/28 03:31:19;;;;;;;8.20;2.70;;;;;;;;;;5026775;28;20086;-79
2021/05/28 03:33:45;;;;;;;8.95;2.47;;;;;;;;;;5036109;28;20017;-80
2021/05/28 03:36:17;;;;;;;9.98;2.42;;;;;;;;;;5033868;28;20033;-81
2021/05/28 03:38:47;;;;;;;9.93;2.88;;;;;;;;;;5025468;28;20037;-81
2021/05/28 03:41:13;;;;;;;8.00;2.35;;;;;;;;;;5026092;28;20073;-82
2021/05/28 03:43:41;;;;;;;10.15;2.42;;;;;;;;;;5027463;28;20547;-80
2021/05/28 03:46:08;;;;;;;10.23;2.40;;;;;;;;;;5027611;28;20021;-81
2021/05/28 03:48:35;;;;;;;9.73;2.42;;;;;;;;;;5027395;28;20480;-80
2021/05/28 03:51:02;;;;;;;9.35;2.60;;;;;;;;;;5031717;28;20060;-80
2021/05/28 03:53:31;;;;;;;8.50;2.50;;;;;;;;;;5023823;28;20054;-79
2021/05/28 03:55:57;;;;;;;10.30;2.92;;;;;;;;;;5030149;28;20132;-80
2021/05/28 03:58:26;;;;;;;7.07;2.40;;;;;;;;;;5010294;28;20114;-80
2021/05/28 04:00:53;;;;;;;8.73;2.42;;;;;;;;;;5031732;28;20122;-81
2021/05/28 04:03:20;;;;;;;10.50;2.53;;;;;;;;;;5011481;28;20070;-81
2021/05/28 04:05:47;;;;;;;10.52;2.80;;;;;;;;;;5030325;28;20041;-80
2021/05/28 04:08:14;;;;;;;9.82;2.58;;;;;;;;;;5032182;28;20051;-82
2021/05/28 04:10:41;;;;;;;8.73;2.33;;;;;;;;;;5030508;28;20036;-81
2021/05/28 04:13:08;;;;;;;9.02;2.70;;;;;;;;;;5024056;28;20469;-80
2021/05/28 04:15:34;;;;;;;10.50;2.70;;;;;;;;;;5035543;28;20042;-80
2021/05/28 04:18:02;;;;;;;11.27;2.50;;;;;;;;;;5029372;28;20040;-80
2021/05/28 04:20:30;;;;;;;7.95;2.63;;;;;;;;;;5035168;28;20160;-81
2021/05/28 04:22:57;;;;;;;10.75;2.67;;;;;;;;;;5025827;28;20560;-80
2021/05/28 04:25:24;;;;;;;10.32;2.72;;;;;;;;;;5031964;28;20131;-81
2021/05/28 04:27:51;;;;;;;9.52;2.30;;;;;;;;;;5029246;28;20437;-80
2021/05/28 04:30:23;;;;;;;10.63;2.97;;;;;;;;;;5034560;28;20025;-80
2021/05/28 04:32:54;;;;;;;9.27;2.70;;;;;;;;;;5032522;28;20049;-80
2021/05/28 04:35:23;;;;;;;8.73;2.83;;;;;;;;;;5026127;28;20920;-81
2021/05/28 04:37:52;;;;;;;10.02;2.80;;;;;;;;;;5036988;28;20021;-83
2021/05/28 04:40:19;;;;;;;12.60;3.03;;;;;;;;;;5031658;28;20021;-81
2021/05/28 04:42:50;;;;;;;10.23;2.80;;;;;;;;;;5038137;28;20032;-82
2021/05/28 04:45:17;;;;;;;8.43;2.55;;;;;;;;;;5029651;28;20021;-81
2021/05/28 04:47:45;;;;;;;10.48;2.70;;;;;;;;;;5009208;28;20029;-81
2021/05/28 04:50:13;;;;;;;11.05;2.80;;;;;;;;;;5023895;28;20116;-81
2021/05/28 04:52:40;;;;;;;9.20;2.83;;;;;;;;;;5027942;28;20025;-80
2021/05/28 04:55:07;;;;;;;8.50;2.72;;;;;;;;;;5024253;28;20037;-81
2021/05/28 04:57:33;;;;;;;12.10;3.65;;;;;;;;;;5031610;28;20188;-81
2021/05/28 04:59:59;;;;;;;14.80;3.60;;;;;;;;;;5033470;28;20114;-80
2021/05/28 05:02:26;;;;;;;10.90;3.22;;;;;;;;;;5029380;28;22224;-81
2021/05/28 05:04:52;;;;;;;11.15;3.40;;;;;;;;;;5012395;28;20408;-81
2021/05/28 05:07:18;;;;;;;9.10;3.38;;;;;;;;;;5026084;28;20021;-80
2021/05/28 05:09:45;;;;;;;10.88;3.10;;;;;;;;;;5033082;28;20037;-81
2021/05/28 05:12:13;;;;;;;11.10;2.70;;;;;;;;;;5026100;28;20032;-80
2021/05/28 05:14:39;;;;;;;13.45;3.45;;;;;;;;;;5028744;28;20476;-80
2021/05/28 05:17:05;;;;;;;11.02;2.97;;;;;;;;;;5012525;28;20040;-79
2021/05/28 05:19:34;;;;;;;9.45;2.55;;;;;;;;;;5012335;28;20126;-80
2021/05/28 05:22:02;;;;;;;8.13;2.22;;;;;;;;;;5031417;28;20055;-80
2021/05/28 05:24:29;;;;;;;9.10;2.60;;;;;;;;;;5026943;28;20025;-80
2021/05/28 05:26:56;;;;;;;9.07;2.67;;;;;;;;;;5030033;28;20025;-79
2021/05/28 05:29:25;;;;;;;9.30;2.72;;;;;;;;;;5028430;28;20025;-80
2021/05/28 05:31:52;;;;;;;10.88;2.70;;;;;;;;;;5022445;28;20041;-80
2021/05/28 05:34:22;;;;;;;9.85;2.72;;;;;;;;;;5005399;28;20195;-80
2021/05/28 05:36:48;;;;;;;10.98;2.80;;;;;;;;;;5025841;28;20397;-80
2021/05/28 05:39:15;;;;;;;9.65;2.70;;;;;;;;;;5023941;28;20029;-80
2021/05/28 05:41:42;;;;;;;9.38;2.60;;;;;;;;;;5015474;28;20048;-79
2021/05/28 05:44:09;;;;;;;9.20;2.67;;;;;;;;;;5019231;28;20090;-82
2021/05/28 05:46:39;;;;;;;9.20;2.30;;;;;;;;;;5027805;28;20033;-79
2021/05/28 05:49:06;;;;;;;11.05;2.90;;;;;;;;;;5031789;28;20021;-85
2021/05/28 05:51:33;;;;;;;9.82;3.05;;;;;;;;;;5036371;28;20033;-84
2021/05/28 05:54:01;;;;;;;10.30;3.15;;;;;;;;;;5034552;28;20375;-87
2021/05/28 05:56:30;;;;;;;8.98;2.22;;;;;;;;;;5016186;28;20033;-85
2021/05/28 05:58:57;;;;;;;9.27;2.58;;;;;;;;;;5039889;28;20166;-85
2021/05/28 06:01:24;;;;;;;12.85;2.75;;;;;;;;;;5018273;28;20097;-85
2021/05/28 06:03:52;;;;;;;11.82;2.83;;;;;;;;;;5021376;28;20392;-84
2021/05/28 06:06:19;;;;;;;11.45;3.28;;;;;;;;;;5019105;28;20138;-84
2021/05/28 06:08:48;;;;;;;11.43;2.75;;;;;;;;;;5039982;28;20013;-85
2021/05/28 06:11:15;;;;;;;10.25;2.78;;;;;;;;;;5035385;28;20024;-85
2021/05/28 06:13:41;;;;;;;14.15;3.03;;;;;;;;;;5036320;28;20036;-84
2021/05/28 06:16:08;;;;;;;9.98;2.50;;;;;;;;;;5024822;28;20267;-86
2021/05/28 06:18:39;;;;;;;10.23;2.80;;;;;;;;;;5039292;28;20723;-86
2021/05/28 06:21:06;;;;;;;9.63;2.67;;;;;;;;;;5035452;28;20045;-85
2021/05/28 06:23:34;;;;;;;8.98;2.50;;;;;;;;;;5039442;28;20025;-85
2021/05/28 06:26:00;;;;;;;15.73;2.97;;;;;;;;;;5041139;28;20622;-84
2021/05/28 06:28:28;;;;;;;9.10;2.50;;;;;;;;;;5037114;28;20033;-85
2021/05/28 06:30:54;;;;;;;9.60;2.40;;;;;;;;;;5020050;28;20033;-85
2021/05/28 06:33:21;;;;;;;9.82;2.92;;;;;;;;;;5018130;28;20062;-83
2021/05/28 06:35:48;;;;;;;10.00;2.50;;;;;;;;;;5031525;28;20229;-83
2021/05/28 06:43:59;;;;;;;9.32;2.83;;;;;;;;;;5035219;28;20140;-84
2021/05/28 06:46:27;;;;;;;13.38;3.28;;;;;;;;;;5017569;28;20647;-83
2021/05/28 06:49:19;;;;;;;11.85;2.65;;;;;;;;;;5032973;28;20381;-84
2021/05/28 06:52:11;;;;;;;10.48;3.00;;;;;;;;;;5030107;28;20040;-83
2021/05/28 06:54:39;;;;;;;11.43;3.28;;;;;;;;;;5019996;28;20033;-84
2021/05/28 06:57:06;;;;;;;12.85;3.38;;;;;;;;;;5032225;28;20041;-83
2021/05/28 06:59:33;;;;;;;10.38;3.22;;;;;;;;;;5033567;28;20123;-84
2021/05/28 07:01:59;;;;;;;8.90;2.50;;;;;;;;;;5036794;28;20070;-84
2021/05/28 07:04:27;;;;;;;11.15;3.20;;;;;;;;;;5030146;28;20216;-84
2021/05/28 07:06:54;;;;;;;12.15;4.13;;;;;;;;;;5026451;28;20079;-83
2021/05/28 07:09:22;;;;;;;12.05;4.10;;;;;;;;;;5038994;28;20559;-83
2021/05/28 07:11:50;;;;;;;11.00;3.70;;;;;;;;;;5040851;28;20029;-84
2021/05/28 07:14:16;;;;;;;9.73;3.63;;;;;;;;;;5029445;28;20045;-84
2021/05/28 07:16:43;;;;;;;11.27;4.40;;;;;;;;;;5043843;28;20673;-84
2021/05/28 07:19:10;;;;;;;10.30;4.10;;;;;;;;;;5033369;28;20078;-84
2021/05/28 07:21:37;;;;;;;10.20;3.58;;;;;;;;;;5034087;28;20526;-83
2021/05/28 07:24:28;;;;;;;10.95;3.38;;;;;;;;;;5031185;28;21368;-86
2021/05/28 07:27:21;;;;;;;12.15;3.03;;;;;;;;;;5025627;28;20052;-84
2021/05/28 07:29:48;;;;;;;11.55;2.90;;;;;;;;;;5034468;28;20112;-83
2021/05/28 07:32:15;;;;;;;8.85;2.60;;;;;;;;;;5014935;28;20547;-83
2021/05/28 07:34:42;;;;;;;9.68;2.92;;;;;;;;;;5024746;28;20060;-85
2021/05/28 07:37:09;;;;;;;8.52;2.58;;;;;;;;;;5016454;28;20021;-83
2021/05/28 07:39:37;;;;;;;9.20;3.30;;;;;;;;;;5018650;28;20041;-83
2021/05/28 07:47:49;;;;;;;10.35;3.03;;;;;;;;;;5021340;28;20040;-83
2021/05/28 07:50:16;;;;;;;12.63;3.60;;;;;;;;;;5016304;28;20484;-84
2021/05/28 07:52:43;;;;;;;13.00;4.07;;;;;;;;;;5035350;28;20025;-84
2021/05/28 07:55:11;;;;;;;13.40;3.70;;;;;;;;;;5034847;28;20056;-84
2021/05/28 07:58:04;;;;;;;9.80;3.40;;;;;;;;;;5034206;28;20569;-83
2021/05/28 08:00:33;;;;;;;11.70;3.63;;;;;;;;;;5034945;28;20086;-83
2021/05/28 08:03:01;;;;;;;9.05;2.47;;;;;;;;;;5019788;28;20519;-84
2021/05/28 08:05:29;;;;;;;9.30;3.38;;;;;;;;;;5031164;28;20026;-83
2021/05/28 08:07:58;;;;;;;10.77;2.70;;;;;;;;;;5031346;28;20045;-84
2021/05/28 08:10:25;;;;;;;9.85;2.80;;;;;;;;;;5015989;28;20033;-85
2021/05/28 08:12:52;;;;;;;10.68;2.97;;;;;;;;;;5030802;28;20086;-83
2021/05/28 08:15:21;;;;;;;9.52;3.05;;;;;;;;;;5028761;28;20029;-84
2021/05/28 08:17:48;;;;;;;8.20;2.50;;;;;;;;;;5028102;28;20063;-84
2021/05/28 08:20:17;;;;;;;8.73;2.40;;;;;;;;;;5027979;28;20030;-82
2021/05/28 08:22:44;;;;;;;12.38;2.90;;;;;;;;;;5013031;28;20053;-83
2021/05/28 08:25:14;;;;;;;8.48;2.47;;;;;;;;;;5011284;28;20079;-83
2021/05/28 08:27:40;;;;;;;8.35;2.20;;;;;;;;;;5015061;28;20103;-83
2021/05/28 08:30:08;;;;;;;8.73;2.38;;;;;;;;;;5010362;28;20025;-84
2021/05/28 08:33:01;;;;;;;9.52;2.47;;;;;;;;;;5016198;28;20091;-84
2021/05/28 08:35:30;;;;;;;10.00;2.75;;;;;;;;;;5031117;28;20743;-84
2021/05/28 08:37:58;;;;;;;12.88;2.95;;;;;;;;;;5018253;28;20041;-82
2021/05/28 08:40:29;;;;;;;10.95;4.57;;;;;;;;;;5015378;28;20622;-82
2021/05/28 08:42:59;;;;;;;11.30;2.90;;;;;;;;;;5016468;28;20669;-83
2021/05/28 08:45:42;;;;;;;12.70;3.22;;;;;;;;;;5016973;28;20037;-83
2021/05/28 08:48:10;;;;;;;10.30;2.55;;;;;;;;;;5017850;28;20033;-83
2021/05/28 08:50:37;;;;;;;9.82;2.78;;;;;;;;;;5032612;28;20033;-82
2021/05/28 08:53:05;;;;;;;11.38;2.70;;;;;;;;;;5016080;28;20033;-82
2021/05/28 08:55:34;;;;;;;10.50;2.95;;;;;;;;;;5020363;28;20037;-81
2021/05/28 08:58:21;;;;;;;10.25;3.10;;;;;;;;;;5035620;28;20072;-82
2021/05/28 09:00:48;;;;;;;9.30;2.50;;;;;;;;;;5015259;28;20755;-82
2021/05/28 09:03:34;;;;;;;11.90;2.60;;;;;;;;;;5033097;28;20133;-82
2021/05/28 09:06:25;;;;;;;8.20;2.25;;;;;;;;;;5030636;28;20400;-84
2021/05/28 09:09:09;;;;;;;10.57;2.97;;;;;;;;;;5021253;28;20034;-83
2021/05/28 09:12:00;;;;;;;10.73;2.70;;;;;;;;;;5016090;28;20037;-84
2021/05/28 09:14:30;;;;;;;11.45;2.85;;;;;;;;;;5013521;28;20068;-85
2021/05/28 09:19:57;;;;;;;10.23;2.78;;;;;;;;;;5017871;28;20052;-83
2021/05/28 09:22:33;;;;;;;9.45;2.45;;;;;;;;;;5017146;28;20063;-83
2021/05/28 09:25:01;;;;;;;7.93;2.50;;;;;;;;;;5020165;28;20025;-84
2021/05/28 09:27:35;;;;;;;8.55;2.25;;;;;;;;;;5017937;28;20572;-83
2021/05/28 09:30:09;;;;;;;10.13;2.47;;;;;;;;;;5035680;28;20108;-82
2021/05/28 09:32:38;;;;;;;9.23;2.30;;;;;;;;;;5030287;28;20026;-83
2021/05/28 09:35:13;;;;;;;9.55;2.58;;;;;;;;;;5029155;28;20121;-83
2021/05/28 09:37:41;;;;;;;9.38;2.42;;;;;;;;;;5016656;28;20106;-84
2021/05/28 09:40:30;;;;;;;9.27;2.20;;;;;;;;;;5014641;28;20124;-84
2021/05/28 09:43:01;;;;;;;9.60;2.30;;;;;;;;;;5027656;28;20103;-82
2021/05/28 09:45:35;;;;;;;14.40;3.17;;;;;;;;;;5008653;28;20036;-82
2021/05/28 09:48:21;;;;;;;8.82;2.78;;;;;;;;;;5014277;28;20047;-83
2021/05/28 09:50:55;;;;;;;13.25;2.85;;;;;;;;;;5015798;28;20030;-82
2021/05/28 09:53:30;;;;;;;12.75;2.90;;;;;;;;;;5013583;28;20642;-85
2021/05/28 09:55:58;;;;;;;11.70;2.60;;;;;;;;;;5016886;28;20150;-83
2021/05/28 09:58:24;;;;;;;9.68;3.08;;;;;;;;;;5029421;28;20034;-84
2021/05/28 10:00:51;;;;;;;9.45;3.13;;;;;;;;;;5030427;28;20118;-82
2021/05/28 10:03:22;;;;;;;10.35;3.20;;;;;;;;;;5024583;28;20042;-83
2021/05/28 10:05:54;;;;;;;9.13;2.83;;;;;;;;;;5028920;28;20036;-85
2021/05/28 10:08:22;;;;;;;9.00;2.63;;;;;;;;;;5031522;28;20056;-84
2021/05/28 10:11:13;;;;;;;7.95;2.30;;;;;;;;;;5023304;28;20102;-85
2021/05/28 10:14:04;;;;;;;9.93;2.63;;;;;;;;;;5018514;28;20025;-83
2021/05/28 10:16:57;;;;;;;8.15;2.45;;;;;;;;;;5031072;28;20025;-84
2021/05/28 10:19:23;;;;;;;10.48;2.83;;;;;;;;;;5030465;28;20034;-85
2021/05/28 10:25:07;;;;;;;9.82;2.72;;;;;;;;;;5020043;28;20598;-83
2021/05/28 10:27:34;;;;;;;10.10;3.08;;;;;;;;;;5016413;28;20041;-83
2021/05/28 10:30:14;;;;;;;12.00;3.50;;;;;;;;;;5017507;28;20027;-84
2021/05/28 10:32:42;;;;;;;9.40;2.60;;;;;;;;;;5030850;28;20029;-83
2021/05/28 10:35:13;;;;;;;9.10;2.50;;;;;;;;;;5028867;28;20313;-84
2021/05/28 10:37:45;;;;;;;9.43;2.58;;;;;;;;;;5017437;28;20060;-84
2021/05/28 10:40:33;;;;;;;7.65;2.40;;;;;;;;;;5027616;28;20028;-84
2021/05/28 10:43:04;;;;;;;9.40;2.80;;;;;;;;;;5018037;28;20044;-84
2021/05/28 10:45:49;;;;;;;14.05;2.20;;;;;;;;;;5018375;28;20040;-83
2021/05/28 10:48:45;;;;;;;10.20;2.92;;;;;;;;;;5014891;28;20029;-83
2021/05/28 10:51:23;;;;;;;10.13;2.90;;;;;;;;;;5030981;28;20044;-83
2021/05/28 10:59:45;;;;;;;8.77;2.90;;;;;;;;;;5021050;28;20052;-83
2021/05/28 11:02:11;;;;;;;11.70;3.72;;;;;;;;;;5014235;28;20037;-83
2021/05/28 11:04:38;;;;;;;10.52;3.45;;;;;;;;;;5022091;28;20041;-84
2021/05/28 11:07:07;;;;;;;12.85;3.20;;;;;;;;;;5040719;28;20021;-84
2021/05/28 11:09:43;;;;;;;9.32;3.30;;;;;;;;;;5038820;28;20393;-86
2021/05/28 11:12:25;;;;;;;8.85;2.92;;;;;;;;;;5030620;28;20029;-85
2021/05/28 11:15:00;;;;;;;9.98;2.88;;;;;;;;;;5026270;28;20029;-85
2021/05/28 11:17:28;;;;;;;9.48;3.28;;;;;;;;;;5019564;28;20064;-85
2021/05/28 11:20:20;;;;;;;14.70;4.28;;;;;;;;;;5040880;28;20116;-85
2021/05/28 11:22:47;;;;;;;9.90;3.05;;;;;;;;;;5039120;28;20172;-85
2021/05/28 11:25:19;;;;;;;12.90;4.22;;;;;;;;;;5022591;28;20025;-85
2021/05/28 11:27:54;;;;;;;11.25;3.53;;;;;;;;;;5029453;28;20029;-85
2021/05/28 11:36:45;;;;;;;12.18;3.00;;;;;;;;;;4982660;28;20130;-84
2021/05/28 11:39:22;;;;;;;8.13;2.30;;;;;;;;;;4977400;28;20030;-84
2021/05/28 11:41:53;;;;;;;8.07;2.05;;;;;;;;;;4976008;28;20070;-85
2021/05/28 11:44:22;;;;;;;8.00;2.00;;;;;;;;;;4971536;28;20035;-84
2021/05/28 11:46:50;;;;;;;7.18;2.20;;;;;;;;;;4958993;28;20051;-83
2021/05/28 11:49:18;;;;;;;9.15;2.55;;;;;;;;;;4972762;28;20389;-84
2021/05/28 11:51:45;;;;;;;8.38;2.25;;;;;;;;;;4975080;28;20148;-83
2021/05/28 11:54:24;;;;;;;7.63;2.40;;;;;;;;;;4969722;28;20129;-84
2021/05/28 11:57:09;;;;;;;10.57;4.32;;;;;;;;;;4972399;28;20132;-84
2021/05/28 11:59:54;;;;;;;11.73;2.72;;;;;;;;;;4972424;28;20548;-82
2021/05/28 12:02:40;;;;;;;9.45;2.35;;;;;;;;;;4953896;28;20023;-84
2021/05/28 12:05:24;;;;;;;9.45;2.88;;;;;;;;;;4963424;28;20038;-82
2021/05/28 12:10:52;;;;;;;11.32;2.45;;;;;;;;;;4994052;28;20517;-82
2021/05/28 12:13:22;;;;;;;10.68;2.38;;;;;;;;;;5010361;28;20036;-81
2021/05/28 12:15:51;;;;;;;9.32;2.47;;;;;;;;;;5014898;28;20115;-81
2021/05/28 12:18:35;;;;;;;7.82;2.72;;;;;;;;;;5009778;28;20124;-82
2021/05/28 12:21:10;;;;;;;11.20;3.03;;;;;;;;;;5016664;28;20128;-82
2021/05/28 12:24:01;;;;;;;8.27;2.70;;;;;;;;;;5018605;28;20030;-83
2021/05/28 12:26:30;;;;;;;7.53;2.33;;;;;;;;;;5028791;28;20159;-83
2021/05/28 12:28:58;;;;;;;5.53;1.75;;;;;;;;;;5016034;28;20156;-83
2021/05/28 12:31:31;;;;;;;5.78;1.45;;;;;;;;;;5025568;28;20394;-84
2021/05/28 12:34:13;;;;;;;6.10;1.50;;;;;;;;;;5011145;28;20063;-83
2021/05/28 12:36:41;;;;;;;5.82;1.65;;;;;;;;;;5013613;28;20166;-84
2021/05/28 12:39:09;;;;;;;7.35;2.10;;;;;;;;;;5022373;28;20030;-82
2021/05/28 12:44:36;;;;;;;7.50;2.00;;;;;;;;;;5010177;28;20176;-83
2021/05/28 12:47:03;;;;;;;10.35;2.05;;;;;;;;;;5005692;28;20034;-83
2021/05/28 12:49:43;;;;;;;8.27;2.22;;;;;;;;;;5009228;28;20029;-83
2021/05/28 12:52:19;;;;;;;8.75;2.72;;;;;;;;;;5019032;28;20095;-83
2021/05/28 12:55:12;;;;;;;7.97;2.47;;;;;;;;;;5010274;28;20131;-83
2021/05/28 12:57:39;;;;;;;6.95;1.77;;;;;;;;;;5016496;28;20112;-84
2021/05/28 13:00:05;;;;;;;5.22;1.55;;;;;;;;;;5011310;28;20080;-83
2021/05/28 13:02:39;;;;;;;7.95;2.25;;;;;;;;;;5013430;28;20029;-83
2021/05/28 13:05:14;;;;;;;8.38;3.30;;;;;;;;;;5010562;28;20033;-82
2021/05/28 13:07:44;;;;;;;7.88;1.95;;;;;;;;;;5007350;28;20102;-82
2021/05/28 13:10:24;;;;;;;9.90;1.90;;;;;;;;;;5023758;28;20037;-83
2021/05/28 13:12:54;;;;;;;4.85;1.40;;;;;;;;;;5008055;28;20207;-83
2021/05/28 13:15:30;;;;;;;5.57;1.50;;;;;;;;;;5020142;28;20099;-83
2021/05/28 13:18:01;;;;;;;5.93;1.33;;;;;;;;;;5012692;28;20033;-84
2021/05/28 13:20:28;;;;;;;6.95;2.30;;;;;;;;;;5006877;28;20156;-82
2021/05/28 13:22:58;;;;;;;8.32;2.47;;;;;;;;;;5030894;28;20045;-82
2021/05/28 13:25:39;;;;;;;7.88;1.65;;;;;;;;;;5029588;28;20986;-82
2021/05/28 13:28:10;;;;;;;6.85;1.92;;;;;;;;;;5031232;28;20047;-82
2021/05/28 13:30:41;;;;;;;7.85;2.55;;;;;;;;;;5029898;28;20425;-83
2021/05/28 13:33:32;;;;;;;7.55;2.60;;;;;;;;;;5026142;28;20029;-82
2021/05/28 13:36:04;;;;;;;6.22;1.67;;;;;;;;;;5004216;28;20336;-83
2021/05/28 13:38:34;;;;;;;6.90;1.90;;;;;;;;;;5030401;28;20117;-82
2021/05/28 13:41:08;;;;;;;6.65;1.73;;;;;;;;;;5032167;28;20032;-81
2021/05/28 13:43:35;;;;;;;7.75;1.80;;;;;;;;;;5028709;28;20025;-82
2021/05/28 13:46:02;;;;;;;7.55;1.77;;;;;;;;;;5034794;28;20029;-82
2021/05/28 13:48:31;;;;;;;9.80;1.80;;;;;;;;;;5028719;28;20025;-84
2021/05/28 13:50:59;;;;;;;9.13;2.30;;;;;;;;;;5031615;28;20106;-81
2021/05/28 13:53:32;;;;;;;7.55;2.30;;;;;;;;;;5028314;28;21128;-84
2021/05/28 13:56:00;;;;;;;7.88;1.83;;;;;;;;;;5032134;28;20035;-82
2021/05/28 13:58:28;;;;;;;7.22;2.10;;;;;;;;;;5029181;28;20758;-82
2021/05/28 14:00:55;;;;;;;8.65;2.13;;;;;;;;;;5016108;28;20021;-84
2021/05/28 14:03:22;;;;;;;9.57;2.58;;;;;;;;;;5026198;28;20132;-83
2021/05/28 14:05:51;;;;;;;7.75;1.98;;;;;;;;;;5011953;28;20036;-84
2021/05/28 14:08:18;;;;;;;8.02;1.92;;;;;;;;;;5025000;28;20047;-83
2021/05/28 14:10:46;;;;;;;7.07;1.70;;;;;;;;;;5023902;28;20035;-82
2021/05/28 14:13:15;;;;;;;7.32;1.65;;;;;;;;;;5022815;28;20075;-82
2021/05/28 14:15:43;;;;;;;8.18;2.05;;;;;;;;;;5023446;28;20041;-83
2021/05/28 14:23:58;;;;;;;6.45;1.63;;;;;;;;;;5030803;28;20083;-82
2021/05/28 14:26:51;;;;;;;6.40;1.50;;;;;;;;;;5025269;28;20021;-83
2021/05/28 14:29:19;;;;;;;8.02;1.50;;;;;;;;;;5025135;28;20033;-83
2021/05/28 14:31:46;;;;;;;8.30;2.15;;;;;;;;;;5029301;28;20035;-83
2021/05/28 14:34:12;;;;;;;4.93;1.30;;;;;;;;;;5022524;28;20063;-82
2021/05/28 14:36:39;;;;;;;7.70;2.00;;;;;;;;;;5026236;28;20028;-83
2021/05/28 14:39:09;;;;;;;7.10;2.03;;;;;;;;;;5005889;28;20039;-83
2021/05/28 14:41:37;;;;;;;8.18;2.50;;;;;;;;;;5011571;28;20101;-82
2021/05/28 14:44:06;;;;;;;9.93;3.30;;;;;;;;;;5026997;28;20033;-82
2021/05/28 14:46:33;;;;;;;10.68;3.80;;;;;;;;;;5025049;28;20037;-82
2021/05/28 14:49:00;;;;;;;7.65;2.60;;;;;;;;;;5028569;28;20021;-83
2021/05/28 14:51:27;;;;;;;10.50;5.18;;;;;;;;;;5023853;28;21542;-82
2021/05/28 14:53:54;;;;;;;12.65;5.50;;;;;;;;;;5030056;28;20543;-83
2021/05/28 14:59:39;;;;;;;10.50;4.90;;;;;;;;;;5026505;28;20171;-82
2021/05/28 15:02:06;;;;;;;10.18;4.10;;;;;;;;;;5010284;28;20159;-81
2021/05/28 15:04:33;;;;;;;11.98;5.65;;;;;;;;;;5030264;28;20360;-83
2021/05/28 15:07:01;;;;;;;12.18;6.55;;;;;;;;;;5029387;28;20081;-83
2021/05/28 15:09:28;;;;;;;18.65;10.15;;;;;;;;;;5021732;28;20028;-82
2021/05/28 15:11:55;;;;;;;11.60;5.32;;;;;;;;;;5012795;28;20093;-83
2021/05/28 15:14:21;;;;;;;14.15;7.20;;;;;;;;;;5024996;28;20025;-83
2021/05/28 15:16:50;;;;;;;11.77;4.93;;;;;;;;;;5025467;28;20409;-83
2021/05/28 15:19:16;;;;;;;10.90;5.38;;;;;;;;;;5023270;28;20033;-83
2021/05/28 15:21:49;;;;;;;13.63;5.78;;;;;;;;;;5021683;28;20056;-79
2021/05/28 15:24:15;;;;;;;10.15;5.10;;;;;;;;;;5019784;28;20025;-79
2021/05/28 15:26:46;;;;;;;14.40;8.13;;;;;;;;;;5009031;28;20025;-79
2021/05/28 15:29:13;;;;;;;16.35;9.75;;;;;;;;;;5017506;28;20503;-80
2021/05/28 15:31:44;;;;;;;22.58;14.63;;;;;;;;;;5024914;28;20060;-81
2021/05/28 15:34:12;;;;;;;14.65;8.23;;;;;;;;;;5016805;28;20574;-80
2021/05/28 15:36:39;;;;;;;18.23;11.52;;;;;;;;;;5027475;28;20032;-80
2021/05/28 15:39:06;;;;;;;12.38;5.43;;;;;;;;;;5021053;28;20033;-80
2021/05/28 15:41:35;;;;;;;10.23;4.18;;;;;;;;;;5034098;28;20029;-87
2021/05/28 15:44:04;;;;;;;17.23;10.95;;;;;;;;;;5021481;28;20044;-87